createdAt,value
2019-02-24T11:17:02.571Z,12.50
2019-02-24T11:43:02.654Z,22.50
2019-02-24T11:45:33.637Z,18.50
2019-02-24T13:56:42.288Z,20.10
2019-02-24T13:59:13.071Z,17.90
2019-02-24T14:01:43.856Z,16.40
2019-02-24T14:04:14.726Z,15.40
2019-02-24T14:06:45.625Z,14.60
2019-02-24T14:09:16.365Z,14.20
2019-02-24T14:11:47.140Z,13.90
2019-02-24T14:14:17.909Z,13.70
2019-02-24T14:16:48.663Z,13.60
2019-02-24T14:19:20.384Z,13.40
2019-02-24T14:21:51.205Z,13.40
2019-02-24T14:24:21.956Z,13.40
2019-02-24T14:26:52.864Z,13.30
2019-02-24T14:29:23.620Z,13.40
2019-02-24T14:31:54.516Z,13.40
2019-02-24T14:34:25.289Z,13.40
2019-02-24T14:36:56.043Z,13.40
2019-02-24T14:39:26.791Z,13.30
2019-02-24T14:41:57.612Z,13.30
2019-02-24T14:44:28.629Z,13.40
2019-02-24T14:46:59.408Z,13.30
2019-02-24T14:49:30.152Z,13.30
2019-02-24T14:52:01.044Z,13.40
2019-02-24T14:54:31.864Z,13.40
2019-02-24T14:57:02.624Z,13.30
2019-02-24T14:59:33.451Z,13.30
2019-02-24T15:02:04.341Z,13.30
2019-02-24T15:04:35.112Z,13.20
2019-02-24T15:07:07.849Z,13.30
2019-02-24T15:09:38.516Z,13.30
2019-02-24T15:12:09.266Z,13.10
2019-02-24T15:14:40.096Z,13.10
2019-02-24T15:17:10.976Z,13.10
2019-02-24T15:19:41.812Z,13.10
2019-02-24T15:22:12.634Z,13.10
2019-02-24T15:24:43.544Z,13.20
2019-02-24T15:27:14.296Z,13.30
2019-02-24T15:29:45.112Z,13.40
2019-02-24T15:32:15.844Z,13.40
2019-02-24T15:34:47.544Z,13.40
2019-02-24T15:37:18.313Z,13.50
2019-02-24T15:39:49.239Z,13.50
2019-02-24T15:42:20.156Z,13.50
2019-02-24T15:44:50.921Z,13.50
2019-02-24T15:47:21.758Z,13.60
2019-02-24T15:49:52.705Z,13.60
2019-02-24T15:52:23.481Z,13.50
2019-02-24T15:54:54.384Z,13.40
2019-02-24T15:57:25.197Z,13.30
2019-02-24T15:59:56.016Z,13.20
2019-02-24T16:02:26.829Z,13.10
2019-02-24T16:04:57.660Z,13.00
2019-02-24T16:07:28.481Z,13.00
2019-02-24T16:09:59.224Z,12.80
2019-02-24T16:12:31.117Z,12.70
2019-02-24T16:15:01.864Z,12.70
2019-02-24T16:17:33.965Z,12.70
2019-02-24T16:20:04.975Z,12.60
2019-02-24T16:22:35.717Z,12.60
2019-02-24T16:25:06.893Z,12.70
2019-02-24T16:27:37.719Z,12.70
2019-02-24T16:30:09.485Z,12.60
2019-02-24T16:32:40.316Z,12.50
2019-02-24T16:35:12.817Z,12.30
2019-02-24T16:37:43.733Z,12.20
2019-02-24T16:40:18.317Z,12.10
2019-02-24T16:42:50.264Z,12.00
2019-02-24T16:45:21.237Z,11.90
2019-02-24T16:47:52.349Z,11.80
2019-02-24T16:50:23.287Z,11.70
2019-02-24T16:52:54.203Z,11.70
2019-02-24T16:55:25.047Z,11.60
2019-02-24T16:57:56.023Z,11.50
2019-02-24T17:00:27.028Z,11.40
2019-02-24T17:02:58.197Z,11.10
2019-02-24T17:05:29.337Z,11.00
2019-02-24T17:08:00.377Z,10.80
2019-02-24T17:10:31.355Z,10.70
2019-02-24T17:13:02.119Z,10.50
2019-02-24T17:15:32.963Z,10.30
2019-02-24T17:18:03.950Z,10.10
2019-02-24T17:20:34.755Z,10.10
2019-02-24T17:23:06.643Z,10.00
2019-02-24T17:25:37.543Z,9.90
2019-02-24T17:28:08.360Z,9.80
2019-02-24T17:30:39.264Z,9.70
2019-02-24T17:33:10.131Z,9.60
2019-02-24T17:35:41.060Z,9.50
2019-02-24T17:38:12.011Z,9.60
2019-02-24T17:40:42.912Z,9.50
2019-02-24T17:43:13.795Z,9.40
2019-02-24T17:45:44.981Z,9.40
2019-02-24T17:48:15.840Z,9.30
2019-02-24T17:50:46.644Z,9.30
2019-02-24T17:53:17.570Z,9.30
2019-02-24T17:55:48.299Z,9.20
2019-02-24T17:58:19.051Z,9.20
2019-02-24T18:00:58.271Z,9.20
2019-02-24T18:03:29.075Z,9.10
2019-02-24T18:05:59.995Z,8.90
2019-02-24T18:08:30.832Z,8.70
2019-02-24T18:11:01.604Z,8.60
2019-02-24T18:13:32.485Z,8.50
2019-02-24T18:16:03.461Z,8.40
2019-02-24T18:18:35.235Z,8.20
2019-02-24T18:21:06.710Z,8.20
2019-02-24T18:23:37.628Z,8.10
2019-02-24T18:26:08.531Z,8.00
2019-02-24T18:28:39.355Z,8.00
2019-02-24T18:31:10.192Z,7.90
2019-02-24T18:33:48.117Z,7.90
2019-02-24T18:36:13.588Z,7.80
2019-02-24T18:38:44.408Z,7.70
2019-02-24T18:41:15.305Z,7.70
2019-02-24T18:43:46.221Z,7.70
2019-02-24T18:46:17.059Z,7.70
2019-02-24T18:48:47.883Z,7.70
2019-02-24T18:51:18.645Z,7.60
2019-02-24T18:53:49.440Z,7.60
2019-02-24T18:56:20.396Z,7.60
2019-02-24T18:58:51.273Z,7.50
2019-02-24T19:01:22.108Z,7.50
2019-02-24T19:03:57.557Z,7.50
2019-02-24T19:06:26.612Z,7.40
2019-02-24T19:08:57.440Z,7.50
2019-02-24T19:11:28.247Z,7.60
2019-02-24T19:13:59.026Z,7.50
2019-02-24T19:16:29.908Z,7.40
2019-02-24T19:19:00.833Z,7.40
2019-02-24T19:21:31.748Z,7.40
2019-02-24T19:24:02.511Z,7.30
2019-02-24T19:26:33.312Z,7.30
2019-02-24T19:29:04.219Z,7.20
2019-02-24T19:31:35.059Z,7.20
2019-02-24T19:34:07.186Z,7.00
2019-02-24T19:36:37.953Z,7.00
2019-02-24T19:39:13.536Z,7.00
2019-02-24T19:41:44.368Z,7.00
2019-02-24T19:44:15.175Z,6.90
2019-02-24T19:46:45.908Z,6.90
2019-02-24T19:49:16.732Z,6.80
2019-02-24T19:51:47.588Z,6.80
2019-02-24T19:54:18.404Z,6.70
2019-02-24T19:56:49.227Z,6.70
2019-02-24T19:59:20.043Z,6.70
2019-02-24T20:01:50.980Z,6.70
2019-02-24T20:04:21.780Z,6.70
2019-02-24T20:06:52.592Z,6.70
2019-02-24T20:09:23.432Z,6.70
2019-02-24T20:11:54.336Z,6.70
2019-02-24T20:14:25.228Z,6.80
2019-02-24T20:16:56.236Z,6.80
2019-02-24T20:19:27.052Z,6.80
2019-02-24T20:21:57.892Z,6.90
2019-02-24T20:24:33.060Z,6.90
2019-02-24T20:27:01.467Z,7.00
2019-02-24T20:29:32.316Z,7.10
2019-02-24T20:32:03.172Z,7.20
2019-02-24T20:34:34.004Z,7.10
2019-02-24T20:37:04.888Z,7.00
2019-02-24T20:39:35.708Z,7.00
2019-02-24T20:42:06.600Z,6.90
2019-02-24T20:44:37.400Z,6.80
2019-02-24T20:47:08.284Z,6.70
2019-02-24T20:49:39.169Z,6.60
2019-02-24T20:52:09.984Z,6.50
2019-02-24T20:54:40.924Z,6.50
2019-02-24T20:57:11.653Z,6.40
2019-02-24T20:59:42.528Z,6.40
2019-02-24T21:02:13.276Z,6.40
2019-02-24T21:04:44.124Z,6.30
2019-02-24T21:07:15.080Z,6.30
2019-02-24T21:09:45.888Z,6.30
2019-02-24T21:12:16.800Z,6.20
2019-02-24T21:14:47.666Z,6.30
2019-02-24T21:17:18.496Z,6.40
2019-02-24T21:19:49.248Z,6.40
2019-02-24T21:22:20.236Z,6.40
2019-02-24T21:24:50.977Z,6.50
2019-02-24T21:27:21.801Z,6.40
2019-02-24T21:29:52.611Z,6.40
2019-02-24T21:32:23.339Z,6.30
2019-02-24T21:34:54.152Z,6.30
2019-02-24T21:37:24.943Z,6.20
2019-02-24T21:39:55.743Z,6.10
2019-02-24T21:42:26.491Z,6.10
2019-02-24T21:44:57.343Z,6.00
2019-02-24T21:47:28.219Z,6.10
2019-02-24T21:49:59.051Z,6.10
2019-02-24T21:52:29.855Z,6.10
2019-02-24T21:55:00.655Z,6.10
2019-02-24T21:57:31.787Z,6.10
2019-02-24T22:00:02.679Z,6.00
2019-02-24T22:02:34.791Z,6.00
2019-02-24T22:05:06.659Z,5.80
2019-02-24T22:07:37.539Z,5.80
2019-02-24T22:10:09.343Z,5.70
2019-02-24T22:12:40.315Z,5.70
2019-02-24T22:15:13.563Z,5.60
2019-02-24T22:17:44.442Z,5.60
2019-02-24T22:20:16.259Z,5.70
2019-02-24T22:22:47.265Z,5.70
2019-02-24T22:25:18.262Z,5.70
2019-02-24T22:27:56.955Z,5.70
2019-02-24T22:30:28.541Z,5.70
2019-02-24T22:32:59.303Z,5.70
2019-02-24T22:35:30.179Z,5.70
2019-02-24T22:38:01.133Z,5.60
2019-02-24T22:40:32.075Z,5.60
2019-02-24T22:43:02.891Z,5.50
2019-02-24T22:45:33.783Z,5.50
2019-02-24T22:48:05.694Z,5.50
2019-02-24T22:50:37.631Z,5.50
2019-02-24T22:53:08.483Z,5.50
2019-02-24T22:55:39.223Z,5.50
2019-02-24T22:58:10.031Z,5.40
2019-02-24T23:01:05.647Z,5.40
2019-02-24T23:03:42.911Z,5.40
2019-02-24T23:06:13.965Z,5.20
2019-02-24T23:08:45.111Z,5.20
2019-02-24T23:11:16.079Z,5.10
2019-02-24T23:13:46.955Z,5.10
2019-02-24T23:16:17.748Z,5.00
2019-02-24T23:18:48.574Z,4.90
2019-02-24T23:21:19.384Z,4.90
2019-02-24T23:24:03.127Z,5.00
2019-02-24T23:26:33.876Z,4.90
2019-02-24T23:29:05.903Z,4.80
2019-02-24T23:31:36.715Z,4.80
2019-02-24T23:34:07.475Z,4.80
2019-02-24T23:36:38.343Z,4.70
2019-02-24T23:39:13.475Z,4.70
2019-02-24T23:41:44.358Z,4.80
2019-02-24T23:44:15.313Z,4.70
2019-02-24T23:46:46.183Z,4.80
2019-02-24T23:49:16.999Z,4.90
2019-02-24T23:51:47.892Z,5.00
2019-02-24T23:54:18.703Z,5.00
2019-02-24T23:56:49.495Z,5.00
2019-02-24T23:59:20.315Z,4.90
